sensor_id;sensor_type;location;lat;lon;timestamp;temperature;humidity
364;DHT22;173;48.718;9.274;2023-07-20T12:42:35;30.50;43.50
364;DHT22;173;48.718;9.274;2023-07-20T12:45:10;32.90;34.70
364;DHT22;173;48.718;9.274;2023-07-20T12:47:43;32.10;36.50
364;DHT22;173;48.718;9.274;2023-07-20T12:55:20;32.80;35.30
364;DHT22;173;48.718;9.274;2023-07-20T13:01:17;33.10;34.50
364;DHT22;173;48.718;9.274;2023-07-20T13:03:50;33.70;34.50
364;DHT22;173;48.718;9.274;2023-07-20T13:06:21;33.50;32.60
364;DHT22;173;48.718;9.274;2023-07-20T13:08:52;33.20;31.60
364;DHT22;173;48.718;9.274;2023-07-20T13:11:24;33.20;33.40
364;DHT22;173;48.718;9.274;2023-07-20T13:13:57;33.60;33.60
364;DHT22;173;48.718;9.274;2023-07-20T13:16:30;33.70;34.40
364;DHT22;173;48.718;9.274;2023-07-20T13:19:27;33.60;34.10
364;DHT22;173;48.718;9.274;2023-07-20T13:27:04;33.70;34.80
364;DHT22;173;48.718;9.274;2023-07-20T13:29:37;33.90;34.00
364;DHT22;173;48.718;9.274;2023-07-20T13:35:09;34.50;31.70
364;DHT22;173;48.718;9.274;2023-07-20T13:39:51;33.90;32.60
364;DHT22;173;48.718;9.274;2023-07-20T13:47:32;32.20;34.70
364;DHT22;173;48.718;9.274;2023-07-20T13:50:03;32.30;35.50
364;DHT22;173;48.718;9.274;2023-07-20T13:52:39;32.50;33.40
364;DHT22;173;48.718;9.274;2023-07-20T13:55:12;32.40;34.70
364;DHT22;173;48.718;9.274;2023-07-20T13:57:44;31.80;37.00
364;DHT22;173;48.718;9.274;2023-07-20T14:00:17;32.10;35.00
364;DHT22;173;48.718;9.274;2023-07-20T14:02:49;33.00;33.30
364;DHT22;173;48.718;9.274;2023-07-20T14:05:20;33.40;33.70
364;DHT22;173;48.718;9.274;2023-07-20T14:07:54;33.30;32.20
364;DHT22;173;48.718;9.274;2023-07-20T14:10:26;33.70;33.10
364;DHT22;173;48.718;9.274;2023-07-20T14:12:58;34.30;31.80
364;DHT22;173;48.718;9.274;2023-07-20T14:15:31;34.60;32.00
364;DHT22;173;48.718;9.274;2023-07-20T14:18:03;33.70;30.90
364;DHT22;173;48.718;9.274;2023-07-20T14:20:36;33.30;32.30
364;DHT22;173;48.718;9.274;2023-07-20T14:23:10;33.20;33.70
364;DHT22;173;48.718;9.274;2023-07-20T14:25:43;34.00;34.70
364;DHT22;173;48.718;9.274;2023-07-20T14:28:15;34.90;32.70
364;DHT22;173;48.718;9.274;2023-07-20T14:30:47;35.40;30.40
364;DHT22;173;48.718;9.274;2023-07-20T14:33:22;35.50;31.50
364;DHT22;173;48.718;9.274;2023-07-20T14:35:54;35.10;30.70
364;DHT22;173;48.718;9.274;2023-07-20T14:38:30;34.20;31.70
364;DHT22;173;48.718;9.274;2023-07-20T14:41:06;34.20;32.20
364;DHT22;173;48.718;9.274;2023-07-20T14:43:40;33.90;31.90
364;DHT22;173;48.718;9.274;2023-07-20T14:46:15;33.70;32.90
364;DHT22;173;48.718;9.274;2023-07-20T14:48:47;33.80;31.30
364;DHT22;173;48.718;9.274;2023-07-20T14:54:22;33.90;32.30
364;DHT22;173;48.718;9.274;2023-07-20T14:56:54;34.60;31.20
364;DHT22;173;48.718;9.274;2023-07-20T14:59:26;34.60;30.30
364;DHT22;173;48.718;9.274;2023-07-20T15:01:59;34.50;31.60
364;DHT22;173;48.718;9.274;2023-07-20T15:06:49;34.60;31.90
364;DHT22;173;48.718;9.274;2023-07-20T15:09:22;35.20;30.80
364;DHT22;173;48.718;9.274;2023-07-20T15:11:54;35.50;30.00
364;DHT22;173;48.718;9.274;2023-07-20T15:14:27;35.50;29.70
364;DHT22;173;48.718;9.274;2023-07-20T15:17:00;35.40;29.50
364;DHT22;173;48.718;9.274;2023-07-20T15:19:33;34.90;30.50
364;DHT22;173;48.718;9.274;2023-07-20T15:22:06;34.10;31.60
364;DHT22;173;48.718;9.274;2023-07-20T15:24:38;34.10;33.00
364;DHT22;173;48.718;9.274;2023-07-20T15:35:05;33.80;32.20
364;DHT22;173;48.718;9.274;2023-07-20T15:37:38;34.00;30.60
364;DHT22;173;48.718;9.274;2023-07-20T15:40:12;34.10;30.50
